sensor_id;sensor_type;location;lat;lon;timestamp;P1;durP1;ratioP1;P2;durP2;ratioP2
55007;SDS011;40902;45.116;21.296;2023-12-28T00:00:58;12.70;;;8.02;;
55007;SDS011;40902;45.116;21.296;2023-12-28T00:03:24;11.95;;;7.45;;
55007;SDS011;40902;45.116;21.296;2023-12-28T00:05:49;10.82;;;7.00;;
55007;SDS011;40902;45.116;21.296;2023-12-28T00:08:15;9.93;;;6.38;;
55007;SDS011;40902;45.116;21.296;2023-12-28T00:10:41;12.55;;;6.70;;
55007;SDS011;40902;45.116;21.296;2023-12-28T00:13:07;9.77;;;6.00;;
55007;SDS011;40902;45.116;21.296;2023-12-28T00:15:33;10.77;;;6.15;;
55007;SDS011;40902;45.116;21.296;2023-12-28T00:17:58;8.65;;;5.95;;
55007;SDS011;40902;45.116;21.296;2023-12-28T00:20:24;7.60;;;5.97;;
55007;SDS011;40902;45.116;21.296;2023-12-28T00:22:50;9.70;;;6.10;;
55007;SDS011;40902;45.116;21.296;2023-12-28T00:25:15;9.40;;;6.28;;
55007;SDS011;40902;45.116;21.296;2023-12-28T00:27:41;8.43;;;5.60;;
55007;SDS011;40902;45.116;21.296;2023-12-28T00:30:07;9.73;;;5.85;;
55007;SDS011;40902;45.116;21.296;2023-12-28T00:32:33;7.18;;;5.22;;
55007;SDS011;40902;45.116;21.296;2023-12-28T00:34:59;10.85;;;6.03;;
55007;SDS011;40902;45.116;21.296;2023-12-28T00:37:24;10.25;;;5.95;;
55007;SDS011;40902;45.116;21.296;2023-12-28T00:39:50;10.10;;;5.63;;
55007;SDS011;40902;45.116;21.296;2023-12-28T00:42:17;9.25;;;5.88;;
55007;SDS011;40902;45.116;21.296;2023-12-28T00:44:44;8.25;;;5.88;;
55007;SDS011;40902;45.116;21.296;2023-12-28T00:47:10;9.40;;;5.45;;
55007;SDS011;40902;45.116;21.296;2023-12-28T00:49:36;8.93;;;4.97;;
55007;SDS011;40902;45.116;21.296;2023-12-28T00:52:02;9.82;;;4.63;;
55007;SDS011;40902;45.116;21.296;2023-12-28T00:54:27;8.18;;;5.07;;
55007;SDS011;40902;45.116;21.296;2023-12-28T00:56:53;6.53;;;4.70;;
55007;SDS011;40902;45.116;21.296;2023-12-28T00:59:19;9.63;;;5.10;;
55007;SDS011;40902;45.116;21.296;2023-12-28T01:01:45;8.85;;;4.97;;
55007;SDS011;40902;45.116;21.296;2023-12-28T01:04:10;8.88;;;6.00;;
55007;SDS011;40902;45.116;21.296;2023-12-28T01:06:36;9.00;;;5.53;;
55007;SDS011;40902;45.116;21.296;2023-12-28T01:09:02;9.30;;;5.32;;
55007;SDS011;40902;45.116;21.296;2023-12-28T01:11:28;9.60;;;5.63;;
55007;SDS011;40902;45.116;21.296;2023-12-28T01:13:53;9.73;;;6.63;;
55007;SDS011;40902;45.116;21.296;2023-12-28T01:16:19;9.07;;;5.22;;
55007;SDS011;40902;45.116;21.296;2023-12-28T01:18:46;8.90;;;5.07;;
55007;SDS011;40902;45.116;21.296;2023-12-28T01:21:11;8.43;;;5.25;;
55007;SDS011;40902;45.116;21.296;2023-12-28T01:23:37;8.20;;;5.28;;
55007;SDS011;40902;45.116;21.296;2023-12-28T01:26:03;9.30;;;5.43;;
55007;SDS011;40902;45.116;21.296;2023-12-28T01:28:29;8.00;;;4.65;;
55007;SDS011;40902;45.116;21.296;2023-12-28T01:30:55;6.72;;;4.95;;
55007;SDS011;40902;45.116;21.296;2023-12-28T01:33:20;7.55;;;3.97;;
55007;SDS011;40902;45.116;21.296;2023-12-28T01:35:46;6.80;;;3.78;;
55007;SDS011;40902;45.116;21.296;2023-12-28T01:38:12;6.55;;;3.58;;
55007;SDS011;40902;45.116;21.296;2023-12-28T01:40:38;7.07;;;3.88;;
55007;SDS011;40902;45.116;21.296;2023-12-28T01:43:08;6.82;;;3.60;;
55007;SDS011;40902;45.116;21.296;2023-12-28T01:45:34;5.60;;;3.42;;
55007;SDS011;40902;45.116;21.296;2023-12-28T01:48:00;5.90;;;3.42;;
55007;SDS011;40902;45.116;21.296;2023-12-28T01:50:26;5.93;;;3.40;;
55007;SDS011;40902;45.116;21.296;2023-12-28T01:52:53;6.65;;;3.60;;
55007;SDS011;40902;45.116;21.296;2023-12-28T01:55:21;5.97;;;3.45;;
55007;SDS011;40902;45.116;21.296;2023-12-28T01:57:47;6.28;;;3.97;;
55007;SDS011;40902;45.116;21.296;2023-12-28T02:00:13;6.05;;;3.85;;
55007;SDS011;40902;45.116;21.296;2023-12-28T02:02:39;5.80;;;3.67;;
55007;SDS011;40902;45.116;21.296;2023-12-28T02:05:06;5.60;;;3.30;;
55007;SDS011;40902;45.116;21.296;2023-12-28T02:07:34;8.43;;;3.40;;
55007;SDS011;40902;45.116;21.296;2023-12-28T02:10:01;6.13;;;3.42;;
55007;SDS011;40902;45.116;21.296;2023-12-28T02:12:27;5.70;;;3.42;;
55007;SDS011;40902;45.116;21.296;2023-12-28T02:14:53;4.97;;;2.92;;
55007;SDS011;40902;45.116;21.296;2023-12-28T02:19:57;4.80;;;2.72;;
55007;SDS011;40902;45.116;21.296;2023-12-28T02:22:25;4.85;;;2.90;;
55007;SDS011;40902;45.116;21.296;2023-12-28T02:27:29;20.58;;;12.95;;
55007;SDS011;40902;45.116;21.296;2023-12-28T02:29:55;15.27;;;10.27;;
55007;SDS011;40902;45.116;21.296;2023-12-28T02:37:59;14.98;;;9.98;;
55007;SDS011;40902;45.116;21.296;2023-12-28T02:40:31;15.35;;;10.82;;
55007;SDS011;40902;45.116;21.296;2023-12-28T02:43:04;16.52;;;10.68;;
55007;SDS011;40902;45.116;21.296;2023-12-28T02:45:33;16.33;;;11.80;;
55007;SDS011;40902;45.116;21.296;2023-12-28T02:48:00;17.80;;;11.88;;
55007;SDS011;40902;45.116;21.296;2023-12-28T02:50:26;18.35;;;13.20;;
55007;SDS011;40902;45.116;21.296;2023-12-28T02:52:52;16.95;;;12.40;;
55007;SDS011;40902;45.116;21.296;2023-12-28T02:55:17;18.92;;;12.43;;
55007;SDS011;40902;45.116;21.296;2023-12-28T02:57:46;17.77;;;11.85;;
55007;SDS011;40902;45.116;21.296;2023-12-28T03:00:12;15.05;;;10.93;;
55007;SDS011;40902;45.116;21.296;2023-12-28T03:02:38;18.45;;;11.05;;
55007;SDS011;40902;45.116;21.296;2023-12-28T03:05:04;16.08;;;11.00;;
55007;SDS011;40902;45.116;21.296;2023-12-28T03:07:31;17.58;;;11.88;;
55007;SDS011;40902;45.116;21.296;2023-12-28T03:09:57;14.15;;;11.05;;
55007;SDS011;40902;45.116;21.296;2023-12-28T03:12:23;15.25;;;10.60;;
55007;SDS011;40902;45.116;21.296;2023-12-28T03:14:49;15.23;;;10.82;;
55007;SDS011;40902;45.116;21.296;2023-12-28T03:17:15;16.35;;;10.65;;
55007;SDS011;40902;45.116;21.296;2023-12-28T03:19:41;14.13;;;11.18;;
55007;SDS011;40902;45.116;21.296;2023-12-28T03:22:06;15.77;;;11.38;;
55007;SDS011;40902;45.116;21.296;2023-12-28T03:24:32;15.40;;;11.15;;
55007;SDS011;40902;45.116;21.296;2023-12-28T03:26:58;15.57;;;10.85;;
55007;SDS011;40902;45.116;21.296;2023-12-28T03:29:24;16.35;;;10.82;;
55007;SDS011;40902;45.116;21.296;2023-12-28T03:31:50;14.13;;;10.90;;
55007;SDS011;40902;45.116;21.296;2023-12-28T03:34:15;15.73;;;10.88;;
55007;SDS011;40902;45.116;21.296;2023-12-28T03:36:42;14.25;;;9.73;;
55007;SDS011;40902;45.116;21.296;2023-12-28T03:39:08;14.35;;;10.15;;
55007;SDS011;40902;45.116;21.296;2023-12-28T03:41:34;17.92;;;11.10;;
55007;SDS011;40902;45.116;21.296;2023-12-28T03:43:59;15.27;;;10.10;;
55007;SDS011;40902;45.116;21.296;2023-12-28T03:46:25;15.48;;;10.45;;
55007;SDS011;40902;45.116;21.296;2023-12-28T03:48:52;13.57;;;10.55;;
55007;SDS011;40902;45.116;21.296;2023-12-28T03:51:18;14.40;;;10.75;;
55007;SDS011;40902;45.116;21.296;2023-12-28T03:53:44;15.07;;;10.77;;
55007;SDS011;40902;45.116;21.296;2023-12-28T03:56:23;14.07;;;10.32;;
55007;SDS011;40902;45.116;21.296;2023-12-28T03:58:50;16.30;;;11.65;;
55007;SDS011;40902;45.116;21.296;2023-12-28T04:01:19;19.13;;;13.27;;
55007;SDS011;40902;45.116;21.296;2023-12-28T04:03:46;16.33;;;11.00;;
55007;SDS011;40902;45.116;21.296;2023-12-28T04:06:13;22.00;;;12.95;;
55007;SDS011;40902;45.116;21.296;2023-12-28T04:08:39;15.32;;;9.60;;
55007;SDS011;40902;45.116;21.296;2023-12-28T04:11:06;14.52;;;9.10;;
55007;SDS011;40902;45.116;21.296;2023-12-28T04:13:32;14.15;;;8.82;;
55007;SDS011;40902;45.116;21.296;2023-12-28T04:15:58;14.90;;;8.50;;
55007;SDS011;40902;45.116;21.296;2023-12-28T04:18:24;14.15;;;8.45;;
55007;SDS011;40902;45.116;21.296;2023-12-28T04:20:50;14.77;;;7.57;;
55007;SDS011;40902;45.116;21.296;2023-12-28T04:23:15;10.70;;;5.63;;
55007;SDS011;40902;45.116;21.296;2023-12-28T04:25:41;8.50;;;5.20;;
55007;SDS011;40902;45.116;21.296;2023-12-28T04:28:07;7.88;;;5.13;;
55007;SDS011;40902;45.116;21.296;2023-12-28T04:30:33;7.03;;;4.78;;
55007;SDS011;40902;45.116;21.296;2023-12-28T04:33:00;9.10;;;5.32;;
55007;SDS011;40902;45.116;21.296;2023-12-28T04:35:26;9.15;;;5.65;;
55007;SDS011;40902;45.116;21.296;2023-12-28T04:37:51;7.93;;;5.78;;
55007;SDS011;40902;45.116;21.296;2023-12-28T04:40:17;8.07;;;5.63;;
55007;SDS011;40902;45.116;21.296;2023-12-28T04:42:43;8.98;;;5.93;;
55007;SDS011;40902;45.116;21.296;2023-12-28T04:45:09;8.57;;;5.70;;
55007;SDS011;40902;45.116;21.296;2023-12-28T04:47:35;8.55;;;5.30;;
55007;SDS011;40902;45.116;21.296;2023-12-28T04:50:02;9.20;;;5.68;;
55007;SDS011;40902;45.116;21.296;2023-12-28T04:52:28;7.95;;;5.25;;
55007;SDS011;40902;45.116;21.296;2023-12-28T04:54:54;8.57;;;5.03;;
55007;SDS011;40902;45.116;21.296;2023-12-28T04:57:20;10.35;;;4.65;;
55007;SDS011;40902;45.116;21.296;2023-12-28T04:59:46;7.07;;;4.57;;
55007;SDS011;40902;45.116;21.296;2023-12-28T05:02:11;7.10;;;4.72;;
55007;SDS011;40902;45.116;21.296;2023-12-28T05:04:37;8.88;;;4.97;;
55007;SDS011;40902;45.116;21.296;2023-12-28T05:07:04;6.80;;;4.72;;
55007;SDS011;40902;45.116;21.296;2023-12-28T05:09:29;6.85;;;4.80;;
55007;SDS011;40902;45.116;21.296;2023-12-28T05:11:56;6.68;;;4.65;;
55007;SDS011;40902;45.116;21.296;2023-12-28T05:14:22;9.20;;;5.40;;
55007;SDS011;40902;45.116;21.296;2023-12-28T05:16:48;9.60;;;6.10;;
55007;SDS011;40902;45.116;21.296;2023-12-28T05:19:13;9.23;;;6.28;;
55007;SDS011;40902;45.116;21.296;2023-12-28T05:21:39;10.98;;;6.97;;
55007;SDS011;40902;45.116;21.296;2023-12-28T05:24:05;8.85;;;5.57;;
55007;SDS011;40902;45.116;21.296;2023-12-28T05:26:31;8.48;;;5.55;;
55007;SDS011;40902;45.116;21.296;2023-12-28T05:28:57;10.05;;;5.20;;
55007;SDS011;40902;45.116;21.296;2023-12-28T05:31:22;6.47;;;4.15;;
55007;SDS011;40902;45.116;21.296;2023-12-28T05:33:48;7.18;;;4.80;;
55007;SDS011;40902;45.116;21.296;2023-12-28T05:36:14;6.68;;;4.45;;
55007;SDS011;40902;45.116;21.296;2023-12-28T05:38:39;8.05;;;4.53;;
55007;SDS011;40902;45.116;21.296;2023-12-28T05:41:05;8.52;;;4.65;;
55007;SDS011;40902;45.116;21.296;2023-12-28T05:43:31;8.18;;;4.43;;
55007;SDS011;40902;45.116;21.296;2023-12-28T05:45:57;8.82;;;4.53;;
55007;SDS011;40902;45.116;21.296;2023-12-28T05:48:23;6.15;;;3.53;;
55007;SDS011;40902;45.116;21.296;2023-12-28T05:50:48;5.72;;;4.07;;
55007;SDS011;40902;45.116;21.296;2023-12-28T05:53:14;6.47;;;3.78;;
55007;SDS011;40902;45.116;21.296;2023-12-28T05:55:40;8.73;;;5.03;;
55007;SDS011;40902;45.116;21.296;2023-12-28T05:58:06;8.15;;;4.70;;
55007;SDS011;40902;45.116;21.296;2023-12-28T06:00:32;9.63;;;4.43;;
55007;SDS011;40902;45.116;21.296;2023-12-28T06:02:58;8.05;;;5.03;;
55007;SDS011;40902;45.116;21.296;2023-12-28T06:05:23;8.80;;;4.30;;
55007;SDS011;40902;45.116;21.296;2023-12-28T06:07:49;7.88;;;5.28;;
55007;SDS011;40902;45.116;21.296;2023-12-28T06:10:15;7.45;;;4.85;;
55007;SDS011;40902;45.116;21.296;2023-12-28T06:12:40;7.32;;;4.65;;
55007;SDS011;40902;45.116;21.296;2023-12-28T06:15:06;10.98;;;5.20;;
55007;SDS011;40902;45.116;21.296;2023-12-28T06:17:32;7.55;;;5.30;;
55007;SDS011;40902;45.116;21.296;2023-12-28T06:19:58;10.75;;;4.70;;
55007;SDS011;40902;45.116;21.296;2023-12-28T06:22:24;7.68;;;4.78;;
55007;SDS011;40902;45.116;21.296;2023-12-28T06:24:53;7.55;;;5.28;;
55007;SDS011;40902;45.116;21.296;2023-12-28T06:27:21;7.93;;;4.97;;
55007;SDS011;40902;45.116;21.296;2023-12-28T06:29:48;7.80;;;4.97;;
55007;SDS011;40902;45.116;21.296;2023-12-28T06:32:14;9.52;;;5.75;;
55007;SDS011;40902;45.116;21.296;2023-12-28T06:34:40;11.70;;;5.43;;
55007;SDS011;40902;45.116;21.296;2023-12-28T06:37:06;7.55;;;5.07;;
55007;SDS011;40902;45.116;21.296;2023-12-28T06:39:32;7.80;;;5.60;;
55007;SDS011;40902;45.116;21.296;2023-12-28T06:41:57;10.77;;;6.63;;
55007;SDS011;40902;45.116;21.296;2023-12-28T06:44:23;14.05;;;6.93;;
55007;SDS011;40902;45.116;21.296;2023-12-28T06:46:49;10.85;;;5.88;;
55007;SDS011;40902;45.116;21.296;2023-12-28T06:49:15;9.27;;;5.35;;
55007;SDS011;40902;45.116;21.296;2023-12-28T06:51:40;8.43;;;5.57;;
55007;SDS011;40902;45.116;21.296;2023-12-28T06:54:09;8.63;;;5.63;;
55007;SDS011;40902;45.116;21.296;2023-12-28T06:56:34;9.02;;;5.60;;
55007;SDS011;40902;45.116;21.296;2023-12-28T06:59:00;10.30;;;6.07;;
55007;SDS011;40902;45.116;21.296;2023-12-28T07:01:26;9.55;;;6.00;;
55007;SDS011;40902;45.116;21.296;2023-12-28T07:03:52;9.40;;;5.70;;
55007;SDS011;40902;45.116;21.296;2023-12-28T07:06:17;10.15;;;6.03;;
55007;SDS011;40902;45.116;21.296;2023-12-28T07:08:43;9.20;;;6.30;;
55007;SDS011;40902;45.116;21.296;2023-12-28T07:11:09;7.63;;;5.38;;
55007;SDS011;40902;45.116;21.296;2023-12-28T07:13:36;10.30;;;6.25;;
55007;SDS011;40902;45.116;21.296;2023-12-28T07:16:02;9.32;;;6.60;;
55007;SDS011;40902;45.116;21.296;2023-12-28T07:18:28;11.38;;;7.03;;
55007;SDS011;40902;45.116;21.296;2023-12-28T07:20:54;9.57;;;6.10;;
55007;SDS011;40902;45.116;21.296;2023-12-28T07:23:20;10.90;;;5.97;;
55007;SDS011;40902;45.116;21.296;2023-12-28T07:25:46;10.50;;;6.32;;
55007;SDS011;40902;45.116;21.296;2023-12-28T07:28:11;9.38;;;6.07;;
55007;SDS011;40902;45.116;21.296;2023-12-28T07:30:37;8.77;;;6.03;;
55007;SDS011;40902;45.116;21.296;2023-12-28T07:33:03;11.23;;;6.90;;
55007;SDS011;40902;45.116;21.296;2023-12-28T07:35:29;11.00;;;6.68;;
55007;SDS011;40902;45.116;21.296;2023-12-28T07:37:55;10.63;;;6.88;;
55007;SDS011;40902;45.116;21.296;2023-12-28T07:40:21;11.65;;;6.85;;
55007;SDS011;40902;45.116;21.296;2023-12-28T07:42:47;8.77;;;6.13;;
55007;SDS011;40902;45.116;21.296;2023-12-28T07:45:12;12.02;;;7.03;;
55007;SDS011;40902;45.116;21.296;2023-12-28T07:47:38;12.57;;;7.85;;
55007;SDS011;40902;45.116;21.296;2023-12-28T07:50:04;10.10;;;7.45;;
55007;SDS011;40902;45.116;21.296;2023-12-28T07:52:30;11.55;;;7.28;;
55007;SDS011;40902;45.116;21.296;2023-12-28T07:54:56;11.27;;;7.70;;
55007;SDS011;40902;45.116;21.296;2023-12-28T07:57:22;12.93;;;7.88;;
55007;SDS011;40902;45.116;21.296;2023-12-28T07:59:47;12.45;;;7.40;;
55007;SDS011;40902;45.116;21.296;2023-12-28T08:02:13;10.85;;;7.40;;
55007;SDS011;40902;45.116;21.296;2023-12-28T08:04:39;12.98;;;7.57;;
55007;SDS011;40902;45.116;21.296;2023-12-28T08:07:05;13.73;;;7.40;;
55007;SDS011;40902;45.116;21.296;2023-12-28T08:09:32;11.70;;;7.20;;
55007;SDS011;40902;45.116;21.296;2023-12-28T08:11:58;12.73;;;6.50;;
55007;SDS011;40902;45.116;21.296;2023-12-28T08:14:24;10.32;;;6.28;;
55007;SDS011;40902;45.116;21.296;2023-12-28T08:16:49;9.15;;;6.28;;
55007;SDS011;40902;45.116;21.296;2023-12-28T08:19:15;12.38;;;6.88;;
55007;SDS011;40902;45.116;21.296;2023-12-28T08:21:41;10.57;;;6.05;;
55007;SDS011;40902;45.116;21.296;2023-12-28T08:24:06;10.93;;;6.80;;
55007;SDS011;40902;45.116;21.296;2023-12-28T08:26:32;9.65;;;6.75;;
55007;SDS011;40902;45.116;21.296;2023-12-28T08:28:58;10.98;;;6.53;;
55007;SDS011;40902;45.116;21.296;2023-12-28T08:31:24;12.68;;;7.07;;
55007;SDS011;40902;45.116;21.296;2023-12-28T08:33:50;12.73;;;7.25;;
55007;SDS011;40902;45.116;21.296;2023-12-28T08:36:15;13.93;;;7.82;;
55007;SDS011;40902;45.116;21.296;2023-12-28T08:38:43;14.35;;;9.35;;
55007;SDS011;40902;45.116;21.296;2023-12-28T08:41:17;12.88;;;7.45;;
55007;SDS011;40902;45.116;21.296;2023-12-28T08:43:44;12.48;;;7.60;;
55007;SDS011;40902;45.116;21.296;2023-12-28T08:46:10;10.38;;;7.68;;
55007;SDS011;40902;45.116;21.296;2023-12-28T08:48:35;11.02;;;6.97;;
55007;SDS011;40902;45.116;21.296;2023-12-28T08:51:01;11.85;;;6.82;;
55007;SDS011;40902;45.116;21.296;2023-12-28T08:53:27;16.23;;;7.90;;
55007;SDS011;40902;45.116;21.296;2023-12-28T08:55:57;12.23;;;8.15;;
55007;SDS011;40902;45.116;21.296;2023-12-28T08:58:22;12.32;;;7.93;;
55007;SDS011;40902;45.116;21.296;2023-12-28T09:00:48;10.27;;;7.13;;
55007;SDS011;40902;45.116;21.296;2023-12-28T09:03:14;9.90;;;6.88;;
55007;SDS011;40902;45.116;21.296;2023-12-28T09:05:40;12.32;;;7.55;;
55007;SDS011;40902;45.116;21.296;2023-12-28T09:08:08;11.80;;;7.32;;
55007;SDS011;40902;45.116;21.296;2023-12-28T09:10:34;12.88;;;6.57;;
55007;SDS011;40902;45.116;21.296;2023-12-28T09:13:00;11.80;;;6.63;;
55007;SDS011;40902;45.116;21.296;2023-12-28T09:15:26;12.93;;;7.45;;
55007;SDS011;40902;45.116;21.296;2023-12-28T09:17:51;9.25;;;6.20;;
55007;SDS011;40902;45.116;21.296;2023-12-28T09:20:18;11.40;;;6.50;;
55007;SDS011;40902;45.116;21.296;2023-12-28T09:22:44;14.98;;;7.43;;
55007;SDS011;40902;45.116;21.296;2023-12-28T09:25:11;12.38;;;6.95;;
55007;SDS011;40902;45.116;21.296;2023-12-28T09:27:36;12.50;;;6.88;;
55007;SDS011;40902;45.116;21.296;2023-12-28T09:30:02;12.32;;;6.72;;
55007;SDS011;40902;45.116;21.296;2023-12-28T09:32:28;9.63;;;6.80;;
55007;SDS011;40902;45.116;21.296;2023-12-28T09:34:54;13.25;;;6.93;;
55007;SDS011;40902;45.116;21.296;2023-12-28T09:37:20;10.48;;;6.88;;
55007;SDS011;40902;45.116;21.296;2023-12-28T09:39:46;12.18;;;7.88;;
55007;SDS011;40902;45.116;21.296;2023-12-28T09:42:23;13.27;;;8.85;;
55007;SDS011;40902;45.116;21.296;2023-12-28T09:44:52;12.93;;;8.45;;
55007;SDS011;40902;45.116;21.296;2023-12-28T09:47:18;10.07;;;7.38;;
55007;SDS011;40902;45.116;21.296;2023-12-28T09:49:44;10.02;;;7.05;;
55007;SDS011;40902;45.116;21.296;2023-12-28T09:52:12;12.80;;;7.38;;
55007;SDS011;40902;45.116;21.296;2023-12-28T09:54:37;11.30;;;7.85;;
55007;SDS011;40902;45.116;21.296;2023-12-28T09:57:03;11.52;;;7.40;;
55007;SDS011;40902;45.116;21.296;2023-12-28T09:59:30;12.95;;;7.55;;
55007;SDS011;40902;45.116;21.296;2023-12-28T10:01:58;12.85;;;7.68;;
55007;SDS011;40902;45.116;21.296;2023-12-28T10:04:27;13.50;;;7.95;;
55007;SDS011;40902;45.116;21.296;2023-12-28T10:06:54;13.13;;;7.60;;
55007;SDS011;40902;45.116;21.296;2023-12-28T10:09:20;11.15;;;7.53;;
55007;SDS011;40902;45.116;21.296;2023-12-28T10:11:47;11.95;;;6.97;;
55007;SDS011;40902;45.116;21.296;2023-12-28T10:14:13;11.55;;;6.50;;
55007;SDS011;40902;45.116;21.296;2023-12-28T10:16:42;9.60;;;6.35;;
55007;SDS011;40902;45.116;21.296;2023-12-28T10:19:08;10.95;;;6.68;;
55007;SDS011;40902;45.116;21.296;2023-12-28T10:21:33;13.27;;;7.07;;
55007;SDS011;40902;45.116;21.296;2023-12-28T10:23:59;10.23;;;6.30;;
55007;SDS011;40902;45.116;21.296;2023-12-28T10:26:26;11.57;;;7.28;;
55007;SDS011;40902;45.116;21.296;2023-12-28T10:28:59;12.90;;;7.57;;
55007;SDS011;40902;45.116;21.296;2023-12-28T10:31:28;11.82;;;6.75;;
55007;SDS011;40902;45.116;21.296;2023-12-28T10:33:57;11.63;;;7.22;;
55007;SDS011;40902;45.116;21.296;2023-12-28T10:36:28;11.98;;;7.45;;
55007;SDS011;40902;45.116;21.296;2023-12-28T10:38:55;13.13;;;10.32;;
55007;SDS011;40902;45.116;21.296;2023-12-28T10:41:24;12.88;;;7.90;;
55007;SDS011;40902;45.116;21.296;2023-12-28T10:44:02;15.15;;;8.98;;
55007;SDS011;40902;45.116;21.296;2023-12-28T10:46:30;14.30;;;8.75;;
55007;SDS011;40902;45.116;21.296;2023-12-28T10:48:59;13.65;;;7.95;;
55007;SDS011;40902;45.116;21.296;2023-12-28T10:51:30;11.70;;;6.32;;
55007;SDS011;40902;45.116;21.296;2023-12-28T10:56:53;10.77;;;6.32;;
55007;SDS011;40902;45.116;21.296;2023-12-28T11:02:28;8.97;;;5.77;;
55007;SDS011;40902;45.116;21.296;2023-12-28T11:05:00;12.15;;;5.70;;
55007;SDS011;40902;45.116;21.296;2023-12-28T11:07:27;8.95;;;5.47;;
55007;SDS011;40902;45.116;21.296;2023-12-28T11:09:58;8.57;;;5.65;;
55007;SDS011;40902;45.116;21.296;2023-12-28T11:12:26;11.75;;;5.82;;
55007;SDS011;40902;45.116;21.296;2023-12-28T11:14:52;12.63;;;5.22;;
55007;SDS011;40902;45.116;21.296;2023-12-28T11:17:20;8.60;;;4.63;;
55007;SDS011;40902;45.116;21.296;2023-12-28T11:19:49;8.40;;;5.35;;
55007;SDS011;40902;45.116;21.296;2023-12-28T11:22:18;13.35;;;7.90;;
55007;SDS011;40902;45.116;21.296;2023-12-28T11:24:45;13.95;;;9.20;;
55007;SDS011;40902;45.116;21.296;2023-12-28T11:27:11;11.60;;;6.82;;
55007;SDS011;40902;45.116;21.296;2023-12-28T11:29:37;9.45;;;5.65;;
55007;SDS011;40902;45.116;21.296;2023-12-28T11:32:03;6.95;;;4.75;;
55007;SDS011;40902;45.116;21.296;2023-12-28T11:34:32;14.70;;;6.22;;
55007;SDS011;40902;45.116;21.296;2023-12-28T11:37:04;8.27;;;5.78;;
55007;SDS011;40902;45.116;21.296;2023-12-28T11:39:34;13.68;;;5.50;;
55007;SDS011;40902;45.116;21.296;2023-12-28T11:42:02;11.85;;;6.78;;
55007;SDS011;40902;45.116;21.296;2023-12-28T11:44:29;9.52;;;5.60;;
55007;SDS011;40902;45.116;21.296;2023-12-28T11:46:56;10.52;;;5.53;;
55007;SDS011;40902;45.116;21.296;2023-12-28T11:49:25;7.72;;;4.60;;
55007;SDS011;40902;45.116;21.296;2023-12-28T11:51:57;7.63;;;4.72;;
55007;SDS011;40902;45.116;21.296;2023-12-28T11:54:24;9.07;;;4.55;;
55007;SDS011;40902;45.116;21.296;2023-12-28T11:56:51;7.72;;;4.97;;
55007;SDS011;40902;45.116;21.296;2023-12-28T11:59:18;7.00;;;4.53;;
55007;SDS011;40902;45.116;21.296;2023-12-28T12:01:49;9.75;;;4.72;;
55007;SDS011;40902;45.116;21.296;2023-12-28T12:04:15;7.70;;;4.68;;
55007;SDS011;40902;45.116;21.296;2023-12-28T12:06:42;8.38;;;4.97;;
55007;SDS011;40902;45.116;21.296;2023-12-28T12:09:10;10.57;;;4.35;;
55007;SDS011;40902;45.116;21.296;2023-12-28T12:11:36;7.13;;;4.53;;
55007;SDS011;40902;45.116;21.296;2023-12-28T12:14:03;7.55;;;5.13;;
55007;SDS011;40902;45.116;21.296;2023-12-28T12:16:34;9.45;;;5.65;;
55007;SDS011;40902;45.116;21.296;2023-12-28T12:19:02;10.82;;;6.72;;
55007;SDS011;40902;45.116;21.296;2023-12-28T12:21:34;10.60;;;6.57;;
55007;SDS011;40902;45.116;21.296;2023-12-28T12:24:00;12.50;;;6.07;;
55007;SDS011;40902;45.116;21.296;2023-12-28T12:26:29;9.43;;;5.13;;
55007;SDS011;40902;45.116;21.296;2023-12-28T12:28:56;10.57;;;5.65;;
55007;SDS011;40902;45.116;21.296;2023-12-28T12:31:22;9.43;;;4.85;;
55007;SDS011;40902;45.116;21.296;2023-12-28T12:33:49;7.75;;;4.60;;
55007;SDS011;40902;45.116;21.296;2023-12-28T12:36:15;10.95;;;5.25;;
55007;SDS011;40902;45.116;21.296;2023-12-28T12:38:41;11.13;;;5.13;;
55007;SDS011;40902;45.116;21.296;2023-12-28T12:41:07;10.98;;;5.05;;
55007;SDS011;40902;45.116;21.296;2023-12-28T12:43:35;11.02;;;5.60;;
55007;SDS011;40902;45.116;21.296;2023-12-28T12:46:01;10.52;;;6.72;;
55007;SDS011;40902;45.116;21.296;2023-12-28T12:48:30;11.02;;;5.70;;
55007;SDS011;40902;45.116;21.296;2023-12-28T12:50:55;8.63;;;5.88;;
55007;SDS011;40902;45.116;21.296;2023-12-28T12:53:21;11.10;;;5.88;;
55007;SDS011;40902;45.116;21.296;2023-12-28T12:55:47;9.45;;;5.20;;
55007;SDS011;40902;45.116;21.296;2023-12-28T12:58:13;11.05;;;5.57;;
55007;SDS011;40902;45.116;21.296;2023-12-28T13:00:42;9.95;;;5.78;;
55007;SDS011;40902;45.116;21.296;2023-12-28T13:03:09;12.23;;;5.70;;
55007;SDS011;40902;45.116;21.296;2023-12-28T13:05:36;9.98;;;5.93;;
55007;SDS011;40902;45.116;21.296;2023-12-28T13:08:03;10.20;;;6.22;;
55007;SDS011;40902;45.116;21.296;2023-12-28T13:10:30;13.57;;;6.90;;
55007;SDS011;40902;45.116;21.296;2023-12-28T13:12:56;12.15;;;6.18;;
55007;SDS011;40902;45.116;21.296;2023-12-28T13:15:21;8.00;;;6.05;;
55007;SDS011;40902;45.116;21.296;2023-12-28T13:17:47;9.85;;;6.70;;
55007;SDS011;40902;45.116;21.296;2023-12-28T13:20:13;10.88;;;6.30;;
55007;SDS011;40902;45.116;21.296;2023-12-28T13:22:39;9.18;;;5.82;;
55007;SDS011;40902;45.116;21.296;2023-12-28T13:25:05;8.77;;;6.15;;
55007;SDS011;40902;45.116;21.296;2023-12-28T13:27:31;11.98;;;6.25;;
55007;SDS011;40902;45.116;21.296;2023-12-28T13:29:57;9.05;;;6.03;;
55007;SDS011;40902;45.116;21.296;2023-12-28T13:32:23;11.98;;;6.20;;
55007;SDS011;40902;45.116;21.296;2023-12-28T13:34:49;11.30;;;5.78;;
55007;SDS011;40902;45.116;21.296;2023-12-28T13:37:18;8.82;;;6.18;;
55007;SDS011;40902;45.116;21.296;2023-12-28T13:39:43;10.38;;;6.28;;
55007;SDS011;40902;45.116;21.296;2023-12-28T13:42:09;10.00;;;6.55;;
55007;SDS011;40902;45.116;21.296;2023-12-28T13:44:35;11.82;;;6.20;;
55007;SDS011;40902;45.116;21.296;2023-12-28T13:47:01;10.82;;;6.45;;
55007;SDS011;40902;45.116;21.296;2023-12-28T13:49:28;12.75;;;7.35;;
55007;SDS011;40902;45.116;21.296;2023-12-28T13:51:54;12.38;;;7.32;;
55007;SDS011;40902;45.116;21.296;2023-12-28T13:54:20;12.80;;;7.85;;
55007;SDS011;40902;45.116;21.296;2023-12-28T13:56:46;24.95;;;13.77;;
55007;SDS011;40902;45.116;21.296;2023-12-28T13:59:12;15.70;;;10.05;;
55007;SDS011;40902;45.116;21.296;2023-12-28T14:01:38;16.48;;;9.93;;
55007;SDS011;40902;45.116;21.296;2023-12-28T14:04:05;16.15;;;9.38;;
55007;SDS011;40902;45.116;21.296;2023-12-28T14:06:31;16.77;;;9.93;;
55007;SDS011;40902;45.116;21.296;2023-12-28T14:09:06;20.77;;;12.48;;
55007;SDS011;40902;45.116;21.296;2023-12-28T14:11:33;23.35;;;16.17;;
55007;SDS011;40902;45.116;21.296;2023-12-28T14:13:59;22.08;;;15.38;;
55007;SDS011;40902;45.116;21.296;2023-12-28T14:16:25;18.08;;;11.77;;
55007;SDS011;40902;45.116;21.296;2023-12-28T14:18:51;19.48;;;10.88;;
55007;SDS011;40902;45.116;21.296;2023-12-28T14:21:17;36.72;;;23.20;;
55007;SDS011;40902;45.116;21.296;2023-12-28T14:23:43;72.20;;;48.33;;
55007;SDS011;40902;45.116;21.296;2023-12-28T14:26:13;47.75;;;32.97;;
55007;SDS011;40902;45.116;21.296;2023-12-28T14:28:40;48.55;;;33.20;;
55007;SDS011;40902;45.116;21.296;2023-12-28T14:31:10;27.38;;;18.77;;
55007;SDS011;40902;45.116;21.296;2023-12-28T14:33:36;25.85;;;18.17;;
55007;SDS011;40902;45.116;21.296;2023-12-28T14:36:05;21.45;;;14.15;;
55007;SDS011;40902;45.116;21.296;2023-12-28T14:38:36;27.38;;;17.63;;